Time;durP1;ratioP1;P1;durP2;ratioP2;P2;SDS_P1;SDS_P2;PMS_P1;PMS_P2;Temp;Humidity;BMP_temperature;BMP_pressure;BME280_temperature;BME280_humidity;BME280_pressure;Samples;Min_cycle;Max_cycle;Signal;HPM_P1;HPM_P2
2021/10/15 00:00:30;;;;;;;13.60;10.50;;;;;;;9.48;80.45;100516.48;88418;1276;82227;-63
2021/10/15 00:02:43;;;;;;;;;;;;;;;9.47;80.45;100514.94;88444;1281;97437;-63
2021/10/15 00:04:50;;;;;;;12.50;9.60;;;;;;;9.45;80.57;100511.03;88539;1275;87585;-76
2021/10/15 00:07:01;;;;;;;14.20;10.60;;;;;;;9.44;80.68;100512.10;88571;1281;94157;-76
2021/10/15 00:09:08;;;;;;;14.00;10.60;;;;;;;9.44;80.70;100508.05;88618;1281;78411;-61
2021/10/15 00:11:16;;;;;;;12.90;10.20;;;;;;;9.42;80.79;100507.60;88517;1281;82128;-62
2021/10/15 00:13:23;;;;;;;14.10;9.70;;;;;;;9.42;80.79;100508.84;88420;1280;98947;-66
2021/10/15 00:15:31;;;;;;;13.20;9.90;;;;;;;9.46;80.70;100505.74;88617;1281;87588;-75
2021/10/15 00:17:39;;;;;;;14.40;10.30;;;;;;;9.48;80.78;100502.15;88573;1281;95007;-75
2021/10/15 00:19:46;;;;;;;11.60;9.00;;;;;;;9.52;80.74;100500.02;88577;1279;78532;-76
2021/10/15 00:21:54;;;;;;;12.50;9.70;;;;;;;9.54;80.71;100501.02;88614;1281;81736;-76
2021/10/15 00:24:04;;;;;;;13.30;9.40;;;;;;;9.47;80.92;100496.40;88531;1281;98453;-74
2021/10/15 00:26:12;;;;;;;13.70;9.70;;;;;;;9.49;80.84;100496.59;88551;1281;87983;-76
2021/10/15 00:28:28;;;;;;;12.10;8.90;;;;;;;9.52;80.86;100494.44;88588;1281;94032;-77
2021/10/15 00:30:36;;;;;;;11.20;9.00;;;;;;;9.55;80.87;100492.84;88518;1281;77394;-76
2021/10/15 00:32:44;;;;;;;11.10;9.20;;;;;;;9.55;80.98;100498.13;88531;1281;82207;-75
2021/10/15 00:34:51;;;;;;;12.00;9.00;;;;;;;9.55;80.97;100489.98;88515;1281;98012;-65
2021/10/15 00:36:59;;;;;;;10.50;8.40;;;;;;;9.58;81.03;100489.94;88571;1281;86450;-63
2021/10/15 00:39:06;;;;;;;9.70;7.90;;;;;;;9.58;80.94;100490.41;88487;1281;95074;-63
2021/10/15 00:41:13;;;;;;;10.50;7.90;;;;;;;9.59;81.07;100486.02;88437;1281;78998;-64
2021/10/15 00:43:25;;;;;;;9.30;7.40;;;;;;;9.53;81.29;100484.52;88443;1281;81749;-70
2021/10/15 00:45:32;;;;;;;10.00;7.40;;;;;;;9.50;81.35;100477.91;88514;1280;98306;-75
2021/10/15 00:47:40;;;;;;;8.90;7.40;;;;;;;9.52;81.36;100479.18;88383;1283;88515;-76
2021/10/15 00:49:51;;;;;;;8.70;7.10;;;;;;;9.53;81.32;100479.55;88552;1281;95284;-75
2021/10/15 00:52:00;;;;;;;9.40;7.70;;;;;;;9.56;81.40;100479.01;88425;1281;79115;-73
2021/10/15 00:54:08;;;;;;;9.90;7.50;;;;;;;9.58;81.41;100477.67;88511;1280;80817;-62
2021/10/15 00:56:16;;;;;;;10.00;7.30;;;;;;;9.60;81.49;100475.27;88430;1281;98958;-64
2021/10/15 00:58:23;;;;;;;10.10;7.90;;;;;;;9.53;81.72;100474.31;88478;1280;87934;-68
2021/10/15 01:00:31;;;;;;;10.00;7.30;;;;;;;9.54;81.54;100470.39;88517;1281;94131;-74
2021/10/15 01:02:39;;;;;;;9.90;7.60;;;;;;;9.57;81.48;100467.94;88441;1281;78571;-75
2021/10/15 01:04:47;;;;;;;10.60;7.80;;;;;;;9.60;81.62;100460.73;88542;1279;81908;-75
2021/10/15 01:06:55;;;;;;;9.00;7.00;;;;;;;9.64;81.60;100464.21;88552;1281;97308;-76
2021/10/15 01:09:03;;;;;;;8.60;7.30;;;;;;;9.64;81.64;100457.59;88542;1281;88306;-74
2021/10/15 01:11:15;;;;;;;9.40;7.90;;;;;;;9.63;81.61;100454.23;88425;1281;93204;-75
2021/10/15 01:13:23;;;;;;;11.10;8.10;;;;;;;9.66;81.65;100448.64;88437;1281;77922;-69
2021/10/15 01:15:31;;;;;;;9.10;7.40;;;;;;;9.66;81.75;100454.65;88505;1279;81275;-63
2021/10/15 01:17:38;;;;;;;10.00;7.90;;;;;;;9.62;81.76;100449.66;88466;1280;97156;-63
2021/10/15 01:19:51;;;;;;;10.60;8.20;;;;;;;9.62;81.93;100452.08;88504;1281;88124;-63
2021/10/15 01:22:02;;;;;;;9.50;7.60;;;;;;;9.62;81.89;100451.85;88415;1281;95373;-61
2021/10/15 01:24:14;;;;;;;10.60;8.70;;;;;;;9.65;81.88;100448.98;88470;1281;78406;-62
2021/10/15 01:26:22;;;;;;;11.10;9.00;;;;;;;9.65;81.95;100449.33;88456;1281;82314;-64
2021/10/15 01:28:34;;;;;;;12.10;8.90;;;;;;;9.68;82.00;100449.16;88417;1281;97249;-75
2021/10/15 01:30:41;;;;;;;11.90;9.40;;;;;;;9.69;81.97;100449.23;88562;1280;87093;-75
2021/10/15 01:32:49;;;;;;;13.40;9.00;;;;;;;9.72;81.91;100448.08;88460;1281;94848;-75
2021/10/15 01:34:59;;;;;;;14.30;9.60;;;;;;;9.75;81.99;100448.63;88517;1281;78198;-63
2021/10/15 01:37:10;;;;;;;13.10;10.30;;;;;;;9.76;82.11;100442.95;88450;1281;82163;-64
2021/10/15 01:39:17;;;;;;;14.10;9.80;;;;;;;9.75;82.11;100443.81;88487;1281;98631;-63
2021/10/15 01:41:24;;;;;;;14.10;10.40;;;;;;;9.76;82.16;100439.80;88456;1280;87312;-64
2021/10/15 01:43:33;;;;;;;12.60;10.50;;;;;;;9.76;82.18;100441.88;88443;1281;94123;-63
2021/10/15 01:45:41;;;;;;;12.70;10.70;;;;;;;9.77;82.12;100440.83;88465;1281;77985;-64
2021/10/15 01:47:48;;;;;;;14.50;11.00;;;;;;;9.78;82.19;100444.89;88422;1281;81299;-62
2021/10/15 01:49:59;;;;;;;14.30;11.00;;;;;;;9.78;82.35;100442.08;88521;1281;98232;-64
2021/10/15 01:52:07;;;;;;;15.50;11.70;;;;;;;9.78;82.25;100441.25;88444;1279;86840;-63
2021/10/15 01:54:15;;;;;;;13.90;10.50;;;;;;;9.81;82.31;100437.48;88482;1279;94761;-74
2021/10/15 01:56:25;;;;;;;15.90;11.90;;;;;;;9.81;82.28;100437.71;88522;1281;79598;-75
2021/10/15 01:58:32;;;;;;;15.50;12.40;;;;;;;9.82;82.36;100439.02;88479;1280;81971;-63
2021/10/15 02:00:43;;;;;;;15.40;11.60;;;;;;;9.84;82.32;100438.96;88483;1281;98056;-62
2021/10/15 02:02:50;;;;;;;14.70;11.00;;;;;;;9.85;82.39;100437.20;88433;1281;88577;-63
2021/10/15 02:04:58;;;;;;;16.30;12.40;;;;;;;9.81;82.55;100436.64;88384;1281;94613;-62
2021/10/15 02:07:08;;;;;;;17.00;12.10;;;;;;;9.80;82.54;100432.98;88440;1281;78395;-62
2021/10/15 02:09:16;;;;;;;17.90;13.20;;;;;;;9.82;82.52;100434.34;88418;1281;80989;-63
2021/10/15 02:11:26;;;;;;;16.60;12.50;;;;;;;9.80;82.58;100428.04;88433;1281;97569;-64
2021/10/15 02:13:33;;;;;;;15.90;12.20;;;;;;;9.82;82.56;100426.36;88459;1281;87335;-75
2021/10/15 02:15:41;;;;;;;18.00;13.80;;;;;;;9.83;82.57;100424.51;88553;1281;95161;-76
2021/10/15 02:17:49;;;;;;;17.10;14.00;;;;;;;9.84;82.72;100420.45;88516;1281;79297;-75
2021/10/15 02:19:56;;;;;;;16.70;13.90;;;;;;;9.85;82.60;100417.71;88522;1281;81235;-63
2021/10/15 02:22:05;;;;;;;17.60;13.70;;;;;;;9.88;82.64;100416.67;88444;1281;97285;-62
2021/10/15 02:24:12;;;;;;;16.00;12.90;;;;;;;9.90;82.59;100420.23;88412;1279;88203;-76
2021/10/15 02:26:20;;;;;;;16.90;13.40;;;;;;;9.92;82.64;100417.64;88558;1281;92850;-76
2021/10/15 02:28:27;;;;;;;17.40;13.10;;;;;;;9.93;82.60;100415.09;88595;1281;78799;-76
2021/10/15 02:30:35;;;;;;;16.60;13.30;;;;;;;9.96;82.53;100415.05;88495;1281;81698;-75
2021/10/15 02:32:47;;;;;;;19.70;14.40;;;;;;;9.94;82.72;100413.31;88521;1281;99069;-76
2021/10/15 02:34:55;;;;;;;18.00;13.40;;;;;;;9.95;82.61;100412.27;88532;1279;88435;-63
2021/10/15 02:37:02;;;;;;;18.40;14.30;;;;;;;9.94;82.59;100408.36;88405;1281;94794;-63
2021/10/15 02:39:09;;;;;;;20.70;15.60;;;;;;;9.97;82.60;100409.86;88477;1281;79438;-65
2021/10/15 02:41:17;;;;;;;20.60;15.30;;;;;;;9.99;82.62;100407.45;87721;1281;1075060;-63
2021/10/15 02:43:27;;;;;;;22.00;15.70;;;;;;;9.99;82.64;100404.84;88498;1281;98427;-65
2021/10/15 02:45:37;;;;;;;22.80;16.30;;;;;;;9.94;82.80;100402.69;88541;1281;88649;-63
2021/10/15 02:47:47;;;;;;;21.10;16.20;;;;;;;9.94;82.78;100403.89;88421;1281;94698;-63
2021/10/15 02:49:54;;;;;;;21.10;15.60;;;;;;;9.98;82.70;100401.79;88519;1280;82590;-76
2021/10/15 02:52:02;;;;;;;21.50;16.10;;;;;;;9.97;82.75;100399.61;88508;1281;81833;-76
2021/10/15 02:54:09;;;;;;;23.30;17.10;;;;;;;10.00;82.83;100404.02;88562;1281;97208;-63
2021/10/15 02:56:17;;;;;;;26.40;18.10;;;;;;;10.02;82.90;100396.95;88438;1281;89469;-63
2021/10/15 02:58:24;;;;;;;25.40;17.60;;;;;;;10.03;82.84;100397.55;88457;1281;94962;-65
2021/10/15 03:00:32;;;;;;;23.30;17.20;;;;;;;10.04;82.73;100397.09;88332;1283;80860;-64
2021/10/15 03:02:42;;;;;;;25.20;17.70;;;;;;;10.03;82.90;100398.21;88267;1282;80168;-64
2021/10/15 03:04:50;;;;;;;25.20;18.20;;;;;;;10.04;82.86;100399.61;88357;1281;97193;-77
2021/10/15 03:06:57;;;;;;;28.60;19.50;;;;;;;10.05;82.91;100394.95;88385;1281;88311;-77
2021/10/15 03:09:05;;;;;;;26.20;18.40;;;;;;;10.10;82.88;100395.48;88364;1283;95358;-64
2021/10/15 03:11:13;;;;;;;25.70;18.70;;;;;;;10.08;83.03;100396.41;88281;1275;79844;-64
2021/10/15 03:13:23;;;;;;;27.80;20.10;;;;;;;10.10;82.93;100394.53;88292;1283;81698;-64
2021/10/15 03:15:30;;;;;;;24.90;19.30;;;;;;;10.13;83.00;100396.75;88315;1283;97690;-63
2021/10/15 03:17:38;;;;;;;24.10;17.60;;;;;;;10.12;83.10;100397.09;88288;1282;88562;-65
2021/10/15 03:19:45;;;;;;;27.80;19.40;;;;;;;10.07;83.37;100397.79;88334;1283;94594;-78
2021/10/15 03:21:53;;;;;;;28.50;19.90;;;;;;;10.06;83.30;100395.89;88394;1283;78508;-79
2021/10/15 03:24:04;;;;;;;27.00;19.50;;;;;;;10.08;83.31;100389.59;88371;1282;80500;-77
2021/10/15 03:26:12;;;;;;;24.80;19.30;;;;;;;10.12;83.26;100393.41;88354;1283;99215;-80
2021/10/15 03:28:22;;;;;;;26.50;20.10;;;;;;;10.16;83.24;100395.14;88305;1282;86749;-77
2021/10/15 03:30:30;;;;;;;28.20;19.90;;;;;;;10.16;83.29;100389.40;88381;1283;95545;-76
2021/10/15 03:32:37;;;;;;;25.90;19.20;;;;;;;10.18;83.27;100383.92;88353;1282;82173;-78
2021/10/15 03:34:45;;;;;;;26.10;19.50;;;;;;;10.17;83.39;100383.55;88412;1283;82083;-64
2021/10/15 03:36:52;;;;;;;24.60;20.10;;;;;;;10.19;83.30;100382.75;88326;1282;98364;-64
2021/10/15 03:38:59;;;;;;;25.80;19.10;;;;;;;10.19;83.34;100378.16;88306;1282;88989;-63
2021/10/15 03:41:07;;;;;;;29.70;19.80;;;;;;;10.21;83.49;100380.67;88302;1283;92585;-63
2021/10/15 03:43:15;;;;;;;27.00;19.10;;;;;;;10.19;83.45;100377.98;88264;1283;81363;-63
2021/10/15 03:45:23;;;;;;;26.00;19.10;;;;;;;10.20;83.45;100376.83;88250;1284;80020;-64
2021/10/15 03:47:34;;;;;;;27.90;20.40;;;;;;;10.22;83.43;100381.51;88294;1281;98412;-63
2021/10/15 03:49:44;;;;;;;29.80;20.60;;;;;;;10.22;83.55;100378.69;88407;1283;85920;-63
2021/10/15 03:51:52;;;;;;;28.90;20.00;;;;;;;10.22;83.55;100382.85;88269;1283;95065;-64
2021/10/15 03:53:59;;;;;;;28.80;20.50;;;;;;;10.23;83.54;100378.96;88314;1282;82221;-77
2021/10/15 03:56:10;;;;;;;27.40;20.10;;;;;;;10.21;83.50;100381.68;88424;1282;82168;-76
2021/10/15 03:58:20;;;;;;;24.20;18.70;;;;;;;10.21;83.68;100381.92;88387;1283;96776;-75
2021/10/15 04:00:28;;;;;;;23.70;18.40;;;;;;;10.22;83.56;100379.65;88494;1280;88142;-75
2021/10/15 04:02:39;;;;;;;26.50;19.80;;;;;;;10.24;83.65;100375.80;88437;1280;94675;-75
2021/10/15 04:04:49;;;;;;;25.20;18.70;;;;;;;10.24;83.68;100383.66;88522;1281;79403;-78
2021/10/15 04:06:57;;;;;;;25.20;19.30;;;;;;;10.26;83.63;100384.17;88492;1281;81967;-76
2021/10/15 04:09:05;;;;;;;24.50;18.70;;;;;;;10.28;83.54;100385.08;88493;1281;97144;-77
2021/10/15 04:11:13;;;;;;;24.60;19.10;;;;;;;10.31;83.50;100386.42;88552;1280;88110;-77
2021/10/15 04:13:23;;;;;;;22.70;18.90;;;;;;;10.34;83.51;100382.46;88515;1281;94076;-76
2021/10/15 04:15:31;;;;;;;24.00;19.50;;;;;;;10.33;83.55;100386.15;88491;1281;78827;-63
2021/10/15 04:17:42;;;;;;;24.30;18.60;;;;;;;10.30;83.66;100383.83;88414;1280;82557;-62
2021/10/15 04:19:52;;;;;;;23.90;18.40;;;;;;;10.28;83.58;100380.84;88395;1281;99296;-77
2021/10/15 04:21:59;;;;;;;25.10;19.00;;;;;;;10.28;83.62;100379.64;88531;1281;87237;-77
2021/10/15 04:24:07;;;;;;;24.90;19.40;;;;;;;10.31;83.64;100374.58;88555;1281;93860;-63
2021/10/15 04:26:15;;;;;;;22.50;18.80;;;;;;;10.33;83.59;100375.73;88483;1281;81395;-64
2021/10/15 04:28:25;;;;;;;23.10;18.00;;;;;;;10.35;83.58;100376.91;88444;1281;82023;-68
2021/10/15 04:30:33;;;;;;;24.20;18.60;;;;;;;10.34;83.52;100374.56;88547;1281;98816;-77
2021/10/15 04:32:40;;;;;;;24.60;18.60;;;;;;;10.36;83.57;100372.35;88552;1281;89033;-77
2021/10/15 04:34:48;;;;;;;23.80;17.60;;;;;;;10.37;83.57;100370.91;88546;1281;95445;-77
2021/10/15 04:36:55;;;;;;;22.10;17.60;;;;;;;10.37;83.62;100372.06;88537;1281;79660;-77
2021/10/15 04:39:06;;;;;;;23.10;17.70;;;;;;;10.37;83.48;100368.55;88565;1281;83301;-77
2021/10/15 04:41:13;;;;;;;20.20;17.20;;;;;;;10.37;83.48;100367.71;88538;1280;99085;-77
2021/10/15 04:43:24;;;;;;;22.80;17.30;;;;;;;10.39;83.52;100370.90;88539;1281;88331;-70
2021/10/15 04:45:32;;;;;;;20.40;17.00;;;;;;;10.36;83.62;100368.20;88532;1280;94990;-64
2021/10/15 04:47:39;;;;;;;22.60;17.70;;;;;;;10.33;83.63;100366.02;88397;1275;81101;-64
2021/10/15 04:49:47;;;;;;;22.50;17.60;;;;;;;10.32;83.63;100367.27;88497;1280;82490;-76
2021/10/15 04:51:54;;;;;;;19.50;16.00;;;;;;;10.32;83.62;100367.58;88526;1281;98615;-77
2021/10/15 04:54:02;;;;;;;21.80;17.70;;;;;;;10.33;83.57;100364.30;88557;1280;88117;-63
2021/10/15 04:56:10;;;;;;;21.70;16.10;;;;;;;10.36;83.62;100360.77;88463;1281;93088;-64
2021/10/15 04:58:20;;;;;;;18.80;16.60;;;;;;;10.37;83.71;100364.80;88428;1281;79192;-64
2021/10/15 05:00:29;;;;;;;20.00;16.50;;;;;;;10.38;83.72;100366.55;88434;1281;82909;-63
2021/10/15 05:02:39;;;;;;;19.90;16.50;;;;;;;10.39;83.63;100367.95;88433;1281;96577;-64
2021/10/15 05:04:47;;;;;;;19.50;15.80;;;;;;;10.40;83.62;100369.84;88515;1281;88286;-65
2021/10/15 05:06:57;;;;;;;19.50;16.60;;;;;;;10.39;83.70;100370.11;88461;1280;92939;-65
2021/10/15 05:09:25;;;;;;;20.80;17.00;;;;;;;10.41;83.76;100363.94;88510;1281;78906;-66
2021/10/15 05:11:33;;;;;;;20.60;17.20;;;;;;;10.45;83.67;100363.45;88488;1281;81562;-65
2021/10/15 05:13:43;;;;;;;20.90;17.30;;;;;;;10.46;83.62;100357.98;88461;1281;97374;-74
2021/10/15 05:15:51;;;;;;;21.00;16.60;;;;;;;10.47;83.62;100361.77;88415;1276;87163;-73
2021/10/15 05:17:59;;;;;;;19.20;16.40;;;;;;;10.45;83.69;100358.52;88432;1281;94287;-75
2021/10/15 05:20:14;;;;;;;20.80;17.30;;;;;;;10.46;83.77;100357.02;88476;1281;79903;-71
2021/10/15 05:22:24;;;;;;;22.00;17.10;;;;;;;10.50;83.70;100359.23;88442;1275;80425;-70
2021/10/15 05:24:32;;;;;;;20.40;16.90;;;;;;;10.53;83.62;100361.72;88410;1281;98916;-62
2021/10/15 05:26:43;;;;;;;20.00;16.10;;;;;;;10.53;83.58;100357.70;88412;1281;86873;-65
2021/10/15 05:28:50;;;;;;;19.70;15.80;;;;;;;10.54;83.64;100356.04;88434;1281;94190;-63
2021/10/15 05:31:00;;;;;;;19.80;16.30;;;;;;;10.57;83.64;100356.57;88487;1279;80154;-64
2021/10/15 05:33:09;;;;;;;20.10;17.30;;;;;;;10.59;83.64;100357.75;88468;1281;79636;-62
2021/10/15 05:35:16;;;;;;;19.90;16.30;;;;;;;10.60;83.58;100358.85;88477;1281;98741;-64
2021/10/15 05:37:24;;;;;;;19.50;15.80;;;;;;;10.62;83.56;100357.13;88460;1281;87189;-62
2021/10/15 05:39:31;;;;;;;18.90;16.90;;;;;;;10.62;83.63;100361.04;88419;1281;93570;-68
2021/10/15 05:41:38;;;;;;;22.40;17.40;;;;;;;10.62;83.67;100358.91;88441;1280;78562;-66
2021/10/15 05:43:46;;;;;;;19.70;15.90;;;;;;;10.62;83.74;100354.51;88418;1281;82023;-62
2021/10/15 05:45:53;;;;;;;22.00;16.80;;;;;;;10.63;83.58;100356.69;88426;1280;97602;-63
2021/10/15 05:48:01;;;;;;;20.00;16.60;;;;;;;10.64;83.59;100353.09;88493;1281;88069;-64
2021/10/15 05:50:11;;;;;;;18.30;15.80;;;;;;;10.65;83.59;100353.34;88542;1281;94763;-67
2021/10/15 05:52:30;;;;;;;23.70;17.50;;;;;;;10.70;83.57;100350.60;88562;1280;78087;-72
2021/10/15 05:54:48;;;;;;;23.20;16.80;;;;;;;10.73;83.69;100350.36;88516;1281;82718;-61
2021/10/15 05:57:03;;;;;;;20.90;17.30;;;;;;;10.74;83.56;100347.41;88457;1281;98653;-60
2021/10/15 05:59:12;;;;;;;19.50;15.50;;;;;;;10.74;83.51;100349.83;88383;1281;88426;-67
2021/10/15 06:01:22;;;;;;;19.10;15.80;;;;;;;10.77;83.54;100348.31;88415;1281;95005;-69
2021/10/15 06:03:29;;;;;;;21.70;16.90;;;;;;;10.74;83.57;100351.40;88386;1280;79537;-65
2021/10/15 06:06:29;;;;;;;23.40;17.70;;;;;;;10.75;83.53;100358.84;88543;1281;80859;-61
2021/10/15 06:15:43;;;;;;;21.10;17.40;;;;;;;10.83;83.54;100351.45;88403;1281;78415;-63
2021/10/15 06:17:51;;;;;;;22.50;17.40;;;;;;;10.83;83.57;100350.54;88421;1281;82564;-65
2021/10/15 06:19:58;;;;;;;21.40;17.20;;;;;;;10.86;83.38;100353.20;88483;1281;95548;-65
2021/10/15 06:22:05;;;;;;;18.70;16.30;;;;;;;10.91;83.35;100356.00;88468;1281;88459;-65
2021/10/15 06:24:13;;;;;;;19.90;17.30;;;;;;;10.93;83.42;100362.24;88406;1281;95561;-66
2021/10/15 06:26:20;;;;;;;20.20;17.00;;;;;;;10.94;83.27;100358.70;88459;1281;78905;-69
2021/10/15 06:28:31;;;;;;;23.50;17.90;;;;;;;10.91;83.37;100362.42;88419;1281;80157;-74
2021/10/15 06:30:42;;;;;;;22.70;18.70;;;;;;;10.89;83.36;100362.04;88404;1281;99244;-75
2021/10/15 06:32:50;;;;;;;22.50;18.30;;;;;;;10.89;83.31;100358.09;88441;1275;87239;-75
2021/10/15 06:34:57;;;;;;;22.10;17.30;;;;;;;10.89;83.42;100360.55;88462;1280;94816;-75
2021/10/15 06:37:05;;;;;;;23.70;18.40;;;;;;;10.88;83.40;100361.56;88455;1281;80983;-75
2021/10/15 06:39:12;;;;;;;21.30;18.00;;;;;;;10.92;83.44;100360.98;88519;1281;82234;-73
2021/10/15 06:41:20;;;;;;;23.00;17.70;;;;;;;10.94;83.43;100364.86;88452;1279;97952;-73
2021/10/15 06:43:27;;;;;;;23.20;17.50;;;;;;;10.95;83.35;100364.18;88520;1281;86653;-65
2021/10/15 06:45:35;;;;;;;20.90;17.90;;;;;;;10.97;83.41;100366.52;88481;1281;95331;-64
2021/10/15 06:47:43;;;;;;;19.70;17.30;;;;;;;11.04;83.45;100362.95;88453;1281;80150;-65
2021/10/15 06:49:52;;;;;;;21.80;17.60;;;;;;;11.13;83.35;100365.81;88490;1279;79704;-65
2021/10/15 06:51:59;;;;;;;20.80;16.90;;;;;;;11.15;83.30;100365.79;88459;1280;98934;-64
2021/10/15 06:54:07;;;;;;;21.30;17.20;;;;;;;11.20;83.24;100364.96;88496;1281;89176;-64
2021/10/15 06:56:17;;;;;;;23.60;18.20;;;;;;;11.21;83.17;100363.44;88532;1281;93416;-65
2021/10/15 06:58:24;;;;;;;20.70;17.70;;;;;;;11.24;83.18;100361.48;88504;1281;80341;-66
2021/10/15 07:00:32;;;;;;;22.30;18.10;;;;;;;11.32;83.00;100359.95;88392;1282;81967;-66
2021/10/15 07:02:44;;;;;;;21.40;17.70;;;;;;;11.40;83.02;100359.14;88363;1281;98254;-64
2021/10/15 07:04:51;;;;;;;20.70;17.30;;;;;;;11.46;82.99;100354.16;88415;1282;87101;-75
2021/10/15 07:07:00;;;;;;;20.80;18.30;;;;;;;11.49;83.02;100355.84;88321;1281;94401;-75
2021/10/15 07:09:10;;;;;;;23.10;17.30;;;;;;;11.53;82.80;100354.75;88372;1281;80769;-76
2021/10/15 07:11:18;;;;;;;22.30;17.30;;;;;;;11.55;82.75;100354.60;88384;1281;80909;-76
2021/10/15 07:13:29;;;;;;;22.60;18.30;;;;;;;11.61;82.68;100354.61;88357;1282;97878;-66
2021/10/15 07:15:37;;;;;;;20.30;16.60;;;;;;;11.62;82.65;100355.00;88392;1282;87797;-65
2021/10/15 07:17:47;;;;;;;23.80;18.60;;;;;;;11.64;82.65;100357.21;88328;1281;94582;-66
2021/10/15 07:19:55;;;;;;;21.10;17.60;;;;;;;11.66;82.55;100361.88;88365;1282;82540;-65
2021/10/15 07:22:02;;;;;;;21.40;17.00;;;;;;;11.65;82.49;100365.95;88343;1281;82733;-66
2021/10/15 07:24:10;;;;;;;18.20;15.20;;;;;;;11.66;82.40;100367.88;88420;1282;97211;-75
2021/10/15 07:26:17;;;;;;;19.20;15.90;;;;;;;11.65;82.34;100363.00;88416;1281;87141;-74
2021/10/15 07:28:26;;;;;;;19.20;16.90;;;;;;;11.67;82.26;100367.10;88415;1282;94721;-65
2021/10/15 07:30:34;;;;;;;21.90;16.80;;;;;;;11.72;82.22;100371.98;88388;1283;79727;-66
2021/10/15 07:32:41;;;;;;;20.60;17.30;;;;;;;11.70;82.26;100370.45;88417;1282;83702;-67
2021/10/15 07:34:49;;;;;;;19.80;16.40;;;;;;;11.75;82.26;100373.69;88435;1281;98955;-68
2021/10/15 07:36:56;;;;;;;19.60;15.80;;;;;;;11.82;82.19;100378.23;88355;1282;87298;-67
2021/10/15 07:39:05;;;;;;;19.60;16.10;;;;;;;11.87;82.29;100381.75;88356;1282;94386;-63
2021/10/15 07:41:13;;;;;;;19.90;16.40;;;;;;;11.90;82.10;100382.23;88346;1282;81216;-66
2021/10/15 07:43:23;;;;;;;19.60;16.30;;;;;;;11.94;82.06;100386.63;88340;1281;83053;-64
2021/10/15 07:45:31;;;;;;;20.30;16.10;;;;;;;11.95;81.97;100387.93;88344;1281;96621;-65
2021/10/15 07:47:39;;;;;;;18.60;15.40;;;;;;;11.95;81.93;100389.94;88332;1282;87083;-63
2021/10/15 07:49:46;;;;;;;18.10;15.20;;;;;;;11.97;81.82;100383.28;88388;1281;94108;-66
2021/10/15 07:51:54;;;;;;;18.30;15.00;;;;;;;12.01;81.71;100381.11;88386;1281;80416;-66
2021/10/15 07:54:02;;;;;;;16.80;15.00;;;;;;;12.07;81.71;100375.13;88393;1282;82401;-66
2021/10/15 07:56:09;;;;;;;20.50;16.10;;;;;;;12.15;81.71;100370.48;88399;1282;98282;-66
2021/10/15 07:58:20;;;;;;;19.30;15.90;;;;;;;12.20;81.65;100369.25;88370;1282;88526;-65
2021/10/15 08:00:27;;;;;;;18.80;15.00;;;;;;;12.17;81.33;100369.20;88396;1281;92984;-65
2021/10/15 08:02:35;;;;;;;17.80;15.50;;;;;;;12.19;81.07;100366.16;88424;1280;79698;-66
2021/10/15 08:04:45;;;;;;;17.40;14.20;;;;;;;12.18;81.03;100372.87;88488;1279;81896;-76
2021/10/15 08:06:53;;;;;;;16.40;14.30;;;;;;;12.23;81.02;100364.14;88530;1281;98743;-78
2021/10/15 08:09:00;;;;;;;17.10;14.20;;;;;;;12.23;81.03;100361.80;88489;1281;88806;-77
2021/10/15 08:11:07;;;;;;;17.00;14.10;;;;;;;12.25;80.88;100358.78;88507;1281;95004;-77
2021/10/15 08:13:15;;;;;;;15.10;13.50;;;;;;;12.22;80.86;100365.18;88529;1280;80209;-77
2021/10/15 08:15:23;;;;;;;15.80;13.40;;;;;;;12.24;80.88;100362.27;88553;1281;80833;-66
2021/10/15 08:17:33;;;;;;;14.70;13.10;;;;;;;12.29;80.77;100357.71;88429;1280;96933;-65
2021/10/15 08:19:42;;;;;;;15.80;13.80;;;;;;;12.40;80.69;100359.18;88466;1281;87469;-76
2021/10/15 08:21:53;;;;;;;19.20;14.10;;;;;;;12.45;80.68;100355.70;88421;1281;93425;-76
2021/10/15 08:24:00;;;;;;;16.80;12.80;;;;;;;12.58;80.67;100356.58;88414;1281;80538;-76
2021/10/15 08:26:08;;;;;;;14.40;12.30;;;;;;;12.65;80.52;100358.14;88433;1281;82909;-73
2021/10/15 08:28:21;;;;;;;14.10;12.10;;;;;;;12.76;80.48;100353.55;88422;1281;98595;-74
2021/10/15 08:30:29;;;;;;;14.20;12.70;;;;;;;12.87;80.35;100354.08;88461;1280;88911;-68
2021/10/15 08:32:37;;;;;;;15.00;12.80;;;;;;;12.91;80.05;100359.06;88425;1281;95713;-67
2021/10/15 08:34:48;;;;;;;16.20;13.20;;;;;;;12.90;79.77;100357.39;88491;1278;79227;-65
2021/10/15 08:36:58;;;;;;;14.80;12.60;;;;;;;12.90;79.61;100354.67;88479;1280;79867;-67
2021/10/15 08:39:06;;;;;;;14.80;12.70;;;;;;;12.86;79.63;100359.13;88462;1281;97920;-67
2021/10/15 08:41:19;;;;;;;14.70;12.90;;;;;;;12.85;79.58;100356.50;88532;1281;86801;-66
2021/10/15 08:43:38;;;;;;;16.40;12.50;;;;;;;12.95;79.54;100361.65;88497;1281;92742;-76
2021/10/15 08:45:46;;;;;;;15.60;12.80;;;;;;;13.03;79.34;100363.50;88508;1281;79060;-77
2021/10/15 08:47:54;;;;;;;13.40;12.00;;;;;;;13.12;79.40;100358.29;88522;1281;81922;-75
2021/10/15 08:50:01;;;;;;;16.00;12.70;;;;;;;13.11;79.08;100355.98;88486;1281;98056;-76
2021/10/15 08:52:10;;;;;;;14.30;12.40;;;;;;;13.19;79.02;100352.52;88524;1281;88548;-76
2021/10/15 08:54:18;;;;;;;15.80;12.60;;;;;;;13.29;79.07;100349.79;88446;1281;93017;-76
2021/10/15 08:56:31;;;;;;;15.50;12.90;;;;;;;13.66;78.85;100338.08;88416;1281;78233;-77
2021/10/15 08:58:47;;;;;;;15.30;12.70;;;;;;;14.01;78.73;100339.48;88430;1281;81439;-78
2021/10/15 09:01:00;;;;;;;14.10;12.00;;;;;;;14.31;78.32;100334.84;88542;1281;97801;-78
2021/10/15 09:03:21;;;;;;;12.90;11.60;;;;;;;14.81;78.14;100338.46;88489;1281;87303;-76
2021/10/15 09:05:32;;;;;;;13.50;11.60;;;;;;;15.04;77.41;100335.80;88531;1280;93736;-65
2021/10/15 09:07:53;;;;;;;13.70;11.70;;;;;;;15.19;76.83;100330.20;88418;1281;79368;-65
2021/10/15 09:10:18;;;;;;;13.30;11.20;;;;;;;15.22;76.34;100329.55;88527;1281;81519;-80
2021/10/15 09:12:26;;;;;;;14.20;11.00;;;;;;;15.19;76.12;100322.77;88520;1281;98379;-78
2021/10/15 09:14:36;;;;;;;12.10;10.80;;;;;;;15.08;75.73;100324.81;88528;1281;88959;-78
2021/10/15 09:17:08;;;;;;;14.40;11.40;;;;;;;14.89;75.31;100321.89;88532;1281;94962;-79
2021/10/15 09:19:28;;;;;;;12.60;11.30;;;;;;;14.77;75.18;100325.59;88447;1279;79806;-79
2021/10/15 09:21:36;;;;;;;14.70;10.50;;;;;;;14.63;74.64;100323.46;88522;1280;82279;-78
2021/10/15 09:23:50;;;;;;;11.70;10.50;;;;;;;14.55;74.95;100326.42;88517;1279;99176;-79
2021/10/15 09:26:07;;;;;;;12.20;10.80;;;;;;;14.60;75.02;100325.53;88538;1280;88669;-75
2021/10/15 09:28:22;;;;;;;12.40;10.80;;;;;;;14.69;74.80;100326.23;88476;1281;94106;-76
2021/10/15 09:30:31;;;;;;;14.90;10.00;;;;;;;14.81;74.67;100325.36;88473;1281;79434;-76
2021/10/15 09:32:42;;;;;;;11.30;10.10;;;;;;;14.85;74.43;100319.57;88546;1281;83668;-77
2021/10/15 09:34:49;;;;;;;13.00;9.90;;;;;;;14.92;74.38;100316.98;88492;1278;97984;-65
2021/10/15 09:36:56;;;;;;;12.80;9.80;;;;;;;15.04;74.30;100312.02;88430;1281;88499;-66
2021/10/15 09:39:27;;;;;;;12.40;10.60;;;;;;;15.25;73.87;100310.77;88448;1281;94653;-78
2021/10/15 09:41:42;;;;;;;11.60;9.60;;;;;;;15.37;73.71;100312.86;88477;1281;79619;-76
2021/10/15 09:43:49;;;;;;;10.90;9.20;;;;;;;15.55;73.73;100308.33;88464;1281;82132;-78
2021/10/15 09:45:57;;;;;;;11.60;9.30;;;;;;;15.87;73.76;100308.47;88521;1281;98528;-77
2021/10/15 09:48:22;;;;;;;12.70;9.40;;;;;;;16.14;73.26;100308.64;88548;1281;88692;-75
2021/10/15 09:50:35;;;;;;;10.80;9.20;;;;;;;16.29;72.83;100313.39;88458;1280;94654;-79
2021/10/15 09:52:49;;;;;;;10.30;9.30;;;;;;;16.51;72.52;100309.19;88452;1281;80205;-78
2021/10/15 09:55:04;;;;;;;11.40;9.50;;;;;;;16.57;71.59;100304.83;88503;1281;81853;-79
2021/10/15 09:57:11;;;;;;;10.90;9.00;;;;;;;16.48;70.54;100301.52;88525;1281;97942;-76
2021/10/15 09:59:22;;;;;;;12.40;8.70;;;;;;;16.26;70.32;100298.25;88489;1281;87171;-68